Gujrat Weather



Gujrat's Current Weather

Temprature 36o few clouds

few clouds

Rain: 0 %

Min Temprature36o
Max Temprature36o
Humidity26
Wind Speed4.12 m/h
Sun Rise05:10:40
Sun Set18:49:42
Current Time: 08-May-2021 15:27:52
Lat/Lon: 32.5728, 74.079




Gujrat's Geo Location



Gujrat's Weather Forecast

Time Overall Temp Min Temp Max Temp Humidity Wind Speed Rain
08-May-2021 (Sat)
17:00:00 scattered clouds 36.180 36.180 36.540 23 1.98 m/h 0 %
20:00:00 scattered clouds 32.890 31.340 32.890 27 2.54 m/h 0 %
23:00:00 light rain 28.520 28.520 28.520 32 2.21 m/h 11 %
09-May-2021 (Sun)
02:00:00 light rain 26.660 26.660 26.660 38 1.78 m/h 15 %
05:00:00 clear sky 24.520 24.520 24.520 44 3.16 m/h 0 %
08:00:00 few clouds 31.580 31.580 31.580 27 3.22 m/h 0 %
11:00:00 scattered clouds 37.660 37.660 37.660 18 1.75 m/h 0 %
14:00:00 broken clouds 38.800 38.800 38.800 16 3.22 m/h 0 %
17:00:00 light rain 26.570 26.570 26.570 47 8.42 m/h 44 %
20:00:00 light rain 25.500 25.500 25.500 49 5.66 m/h 68 %
23:00:00 broken clouds 25.600 25.600 25.600 49 4.04 m/h 0 %
10-May-2021 (Mon)
02:00:00 overcast clouds 24.530 24.530 24.530 51 1.08 m/h 0 %
05:00:00 light rain 23.740 23.740 23.740 54 2.26 m/h 32 %
08:00:00 light rain 28.790 28.790 28.790 36 2.7 m/h 60 %
11:00:00 light rain 34.300 34.300 34.300 24 1.37 m/h 83 %
14:00:00 overcast clouds 37.440 37.440 37.440 18 0.67 m/h 0 %
17:00:00 overcast clouds 37.880 37.880 37.880 16 1.62 m/h 0 %
20:00:00 few clouds 32.920 32.920 32.920 22 1.19 m/h 0 %
23:00:00 clear sky 29.850 29.850 29.850 28 3.62 m/h 0 %
11-May-2021 (Tue)
02:00:00 clear sky 27.200 27.200 27.200 36 2.21 m/h 0 %
05:00:00 light rain 25.110 25.110 25.110 42 3.98 m/h 31 %
08:00:00 scattered clouds 31.800 31.800 31.800 25 5.68 m/h 0 %
11:00:00 scattered clouds 38.190 38.190 38.190 16 3.76 m/h 0 %
14:00:00 clear sky 40.990 40.990 40.990 13 3.02 m/h 0 %
17:00:00 clear sky 41.150 41.150 41.150 11 0.75 m/h 0 %
20:00:00 scattered clouds 32.600 32.600 32.600 24 5.65 m/h 0 %
23:00:00 light rain 28.570 28.570 28.570 38 2.51 m/h 98 %
12-May-2021 (Wed)
02:00:00 overcast clouds 27.320 27.320 27.320 40 4.54 m/h 0 %
05:00:00 light rain 26.380 26.380 26.380 43 3.41 m/h 35 %
08:00:00 light rain 27.530 27.530 27.530 41 4.25 m/h 44 %
11:00:00 light rain 31.560 31.560 31.560 30 5.48 m/h 56 %
14:00:00 light rain 30.280 30.280 30.280 35 8.24 m/h 23 %
17:00:00 light rain 29.420 29.420 29.420 36 7.27 m/h 12 %
20:00:00 light rain 26.060 26.060 26.060 46 0.9 m/h 46 %
23:00:00 light rain 24.550 24.550 24.550 50 4.65 m/h 14 %
13-May-2021 (Thu)
02:00:00 light rain 22.940 22.940 22.940 56 1.6 m/h 54 %
05:00:00 light rain 21.500 21.500 21.500 66 1.56 m/h 161 %
08:00:00 light rain 25.970 25.970 25.970 49 1.94 m/h 33 %
11:00:00 broken clouds 31.720 31.720 31.720 30 3.22 m/h 0 %
14:00:00 clear sky 34.950 34.950 34.950 23 2.53 m/h 0 %

Famous Cities (60)